Flight Track Log - Related Links

Times and Time Zones

All times are in EDT time to prevent confusion due to time zone crossing. See the ASQ4252 flight status page for this flight to view local times or setup timezone preferences in your user account.

Time Position Orientation Groundspeed Altitude Reporting Facility
EDT Latitude Longitude Course Direction KTS MPH feet Rate Location/Type
Sun 05:05:34 PM 36.1036 -79.7825 49° Northeast 372 428 11,300  Level Washington Center
Sun 05:06:35 PM 36.1586 -79.7031 49° Northeast 341 392 12,000 807 Climbing Washington Center
Sun 05:07:33 PM 36.2308 -79.5986 49° Northeast 343 395 12,900 1,059 Climbing Washington Center
Sun 05:08:34 PM 36.2903 -79.5064 62° Northeast 376 433 14,100 1,328 Climbing Washington Center
Sun 05:09:35 PM 36.3647 -79.3939 51° Northeast 383 441 15,600 1,462 Climbing Washington Center
Sun 05:10:33 PM 36.4389 -79.2969 46° Northeast 388 447 17,000 1,412 Climbing Washington Center
Sun 05:11:34 PM 36.5147 -79.2022 45° Northeast 382 440 18,400 1,488 Climbing Washington Center
Sun 05:12:34 PM 36.5661 -79.0883 61° Northeast 376 433 20,000 1,488 Climbing Washington Center
Sun 05:13:35 PM 36.6356 -78.9931 48° Northeast 376 433 21,400 1,240 Climbing Washington Center
Sun 05:14:35 PM 36.7008 -78.9000 49° Northeast 376 433 22,500 814 Climbing Washington Center
Sun 05:15:33 PM 36.7789 -78.7972 47° Northeast 389 448 23,000 254 Climbing Washington Center
Sun 05:16:33 PM 36.8736 -78.6792 45° Northeast 418 481 23,000  Level Washington Center
Sun 05:17:34 PM 36.9600 -78.5681 46° Northeast 432 497 23,000  Level Washington Center
Sun 05:18:34 PM 37.0444 -78.4386 51° Northeast 447 514 23,000  Level Washington Center
Sun 05:19:35 PM 37.0978 -78.3000 64° Northeast 472 543 23,000 -99 Level Washington Center
Sun 05:20:35 PM 37.1614 -78.1536 61° Northeast 477 549 22,800 -353 Descending Washington Center
Sun 05:21:34 PM 37.2250 -78.0072 61° Northeast 477 549 22,300 -400 Descending Washington Center
Sun 05:22:35 PM 37.2903 -77.8631 60° Northeast 471 542 22,000 -149 Descending Washington Center
Sun 05:23:35 PM 37.3556 -77.7211 60° Northeast 466 536 22,000  Level Washington Center
Sun 05:24:33 PM 37.4206 -77.5792 60° Northeast 466 536 22,000 -101 Level Washington Center
Sun 05:25:34 PM 37.4875 -77.4344 60° Northeast 466 536 21,800 -639 Descending Washington Center
Sun 05:26:35 PM 37.5522 -77.2972 59° Northeast 461 531 20,700 -1,537 Descending Washington Center
Sun 05:27:35 PM 37.6228 -77.1650 56° Northeast 456 525 18,700 -2,085 Descending Washington Center
Sun 05:28:33 PM 37.7339 -77.1147 20° North 415 478 16,600 -2,136 Descending Washington Center
Sun 05:29:33 PM 37.8442 -77.1328 353° North 392 451 14,500 -1,835 Descending Washington Center
Sun 05:30:34 PM 37.9350 -77.2083 327° Northwest 354 407 12,900 -1,574 Descending Washington Center
Sun 05:31:35 PM 38.0133 -77.2839 323° Northwest 349 402 11,300 -1,289 Descending Washington Center
Sun 05:32:35 PM 38.0914 -77.3594 323° Northwest 354 407 10,300 -650 Descending Washington Center
Sun 05:33:35 PM 38.1636 -77.4167 328° Northwest 334 384 10,000 -458 Descending Washington Center
Sun 05:34:33 PM 38.2450 -77.4158 360° North 295 339 9,400 -1,220 Descending Washington Center
Sun 05:35:33 PM 38.3264 -77.4047 North 285 328 7,600 -1,805 Descending Washington Center
Sun 05:36:36 PM 38.4036 -77.3933 North 285 328 5,700 -1,488 Descending Washington Center
Sun 05:37:34 PM 38.4811 -77.3819 North 285 328 4,600 -864 Descending Washington Center
Sun 05:38:34 PM 38.5583 -77.3731 North 279 321 4,000 -250 Descending Washington Center
Sun 05:39:34 PM 38.6314 -77.3589 North 273 314 4,100  Climbing Washington Center
Sun 05:40:35 PM 38.7086 -77.3581 360° North 273 314 4,000  Descending Washington Center
Sun 05:42:10 PM 38.8333 -77.3500 North 252 290 4,100 39 Climbing Potomac TRACON
Sun 05:43:10 PM 38.9000 -77.3500 360° North 241 277 4,100 -100 Level Potomac TRACON
Sun 05:44:10 PM 38.9667 -77.3500 360° North 254 292 3,900  Descending Potomac TRACON
Sun 05:45:16 PM 39.0333 -77.3333 11° North 237 273 4,100 95 Climbing Potomac TRACON
Sun 05:46:16 PM 39.1167 -77.3500 351° North 237 273 4,100  Level Potomac TRACON
Sun 05:47:10 PM 39.1667 -77.3500 360° North 238 274 4,100 -263 Level Potomac TRACON
Sun 05:48:10 PM 39.2167 -77.4000 322° Northwest 247 284 3,600 -476 Descending Potomac TRACON
Sun 05:49:16 PM 39.1833 -77.4333 218° Southwest 181 208 3,100 -286 Descending Potomac TRACON
Sun 05:50:16 PM 39.1333 -77.4333 180° South 179 206 3,000 -200 Descending Potomac TRACON
Sun 05:51:16 PM 39.0833 -77.4333 180° South 171 197 2,700 -600 Descending Potomac TRACON
Sun 05:52:16 PM 39.0333 -77.4333 180° South 169 194 1,800 -793 Descending Potomac TRACON
Sun 05:53:17 PM 38.9833 -77.4333 180° South 137 158 1,100 -689 Descending Potomac TRACON

Login

Don't have an account? Register now (free) for customized features, flight alerts, and more!